TimeHST,TemperatureF,Dew PointF,Humidity,Sea Level PressureIn,VisibilityMPH,Wind Direction,Wind SpeedMPH,Gust SpeedMPH,PrecipitationIn,Events,Conditions,WindDirDegrees,DateUTC
12:53 AM,73.9,66.0,76,30.05,10.0,ENE,3.5,-,N/A,,Partly Cloudy,60,2013-07-21 10:53:00
1:53 AM,72.0,64.9,78,30.04,10.0,Calm,Calm,-,N/A,,Clear,0,2013-07-21 11:53:00
2:53 AM,73.0,66.0,79,30.02,10.0,Calm,Calm,-,N/A,,Partly Cloudy,0,2013-07-21 12:53:00
3:53 AM,73.0,64.9,76,30.01,10.0,Variable,3.5,-,N/A,,Clear,0,2013-07-21 13:53:00
4:53 AM,72.0,64.9,78,30.01,10.0,ENE,3.5,-,N/A,,Clear,60,2013-07-21 14:53:00
5:20 AM,71.6,64.4,78,29.99,10.0,Calm,Calm,-,N/A,,Partly Cloudy,0,2013-07-21 15:20:00
5:53 AM,71.1,64.9,81,30.01,10.0,ENE,3.5,-,N/A,,Clear,70,2013-07-21 15:53:00
6:53 AM,73.9,64.9,73,30.03,10.0,Calm,Calm,-,N/A,,Clear,0,2013-07-21 16:53:00
7:53 AM,78.1,66.0,66,30.04,10.0,Variable,3.5,-,N/A,,Clear,0,2013-07-21 17:53:00
8:11 AM,80.6,66.2,61,30.02,10.0,East,5.8,-,N/A,,Partly Cloudy,80,2013-07-21 18:11:00
8:53 AM,81.0,64.9,58,30.05,10.0,East,10.4,-,N/A,,Partly Cloudy,80,2013-07-21 18:53:00
9:53 AM,84.0,66.0,55,30.04,10.0,Variable,4.6,-,N/A,,Scattered Clouds,0,2013-07-21 19:53:00
10:53 AM,84.0,64.9,53,30.04,10.0,East,10.4,-,N/A,,Mostly Cloudy,100,2013-07-21 20:53:00
11:53 AM,87.1,64.0,46,30.03,10.0,Variable,5.8,-,N/A,,Scattered Clouds,0,2013-07-21 21:53:00
12:53 PM,87.1,63.0,44,30.01,10.0,ENE,8.1,-,N/A,,Clear,70,2013-07-21 22:53:00
1:53 PM,89.1,64.0,43,30.00,10.0,ENE,9.2,-,N/A,,Clear,60,2013-07-21 23:53:00
2:53 PM,87.1,63.0,44,29.99,10.0,ENE,8.1,-,N/A,,Clear,60,2013-07-22 00:53:00
3:53 PM,88.0,62.1,42,29.98,10.0,NE,8.1,-,N/A,,Partly Cloudy,50,2013-07-22 01:53:00
4:53 PM,84.9,62.1,46,29.98,10.0,Variable,6.9,-,N/A,,Clear,0,2013-07-22 02:53:00
5:53 PM,82.9,63.0,51,29.99,10.0,Variable,5.8,-,N/A,,Clear,0,2013-07-22 03:53:00
6:53 PM,80.1,63.0,56,30.01,10.0,Variable,5.8,-,N/A,,Clear,0,2013-07-22 04:53:00
7:53 PM,77.0,63.0,62,30.03,10.0,Variable,3.5,-,N/A,,Clear,0,2013-07-22 05:53:00
8:53 PM,75.0,64.0,69,30.04,10.0,Variable,3.5,-,N/A,,Clear,0,2013-07-22 06:53:00
9:53 PM,75.0,63.0,66,30.05,10.0,Variable,3.5,-,N/A,,Clear,0,2013-07-22 07:53:00
10:53 PM,73.9,63.0,68,30.05,10.0,Variable,3.5,-,N/A,,Clear,0,2013-07-22 08:53:00
11:53 PM,73.9,63.0,68,30.05,10.0,Calm,Calm,-,N/A,,Clear,0,2013-07-22 09:53:00